Terminal Aerodrome Forecast
Issued by NWS Pueblo, CO

Current Version | Previous Version | Text Only | Print | Product List | Glossary On
Versions: 1 2 3 4 5 6 7 8 9 10 11 12 13 14 15 16 17 18 19 20 21 22 23 24 25 26 27
000
FTUS45 KPUB 212329
TAFPUB
TAF
KPUB 212329Z 2200/2224 11008KT P6SM SCT110 BKN200
     FM220300 VRB06KT P6SM SCT100 BKN140
     FM220700 30007KT P6SM BKN090
     FM221200 VRB05KT P6SM SCT090 BKN200
     FM222000 10008KT P6SM SCT120 SCT200=

USA.gov is the U.S. government's official web portal to all federal, state and local government web resources and services.